Nearby METAR Reports

 

KNUQ - Moffett Nas/Mtn, California, USA
Distance from station: N 9mi, 14km
Updated: Tue, 22-Aug-2017 2:56pm PDT
Clear
Clear
 Wind from N
Wind: N 14 mph , 22 km/h
Temperature: 75°F , 24°C
Dew Point: 61°F , 16°C
Humidity: 61%
Barometer: 30.01 inHg , 1016.3 hPa
Clouds: Clear
Visibility: 10 miles , 16 km
2017/08/22 21:56 KNUQ 222156Z 35012KT 10SM CLR 24/16 A3001 RMK AO2 SLP165 T02390156
KSJC - San Jose, California, USA
Distance from station: NE 9mi, 14km
Updated: Tue, 22-Aug-2017 2:53pm PDT
Few Clouds
Few Clouds
 Wind from WNW
Wind: WNW 10 mph , 17 km/h
Temperature: 81°F , 27°C
Heat Index: 82°F , 28°C
Dew Point: 61°F , 16°C
Humidity: 51%
Barometer: 30.00 inHg , 1015.9 hPa
Clouds: Few Clouds
Visibility: 10 miles , 16 km
Cloud details: Few Clouds 6500 ft
2017/08/22 21:53 KSJC 222153Z 29009KT 10SM FEW065 27/16 A3000 RMK AO2 SLP157 T02670156
 
KRHV - San Jose/Reid, California, USA
Distance from station: ENE 12mi, 19km
Updated: Tue, 22-Aug-2017 2:52pm PDT
Clear
Clear
 Wind from NW
Wind: NW 7 mph , 11 km/h
Temperature: 82°F , 28°C
Heat Index: 82°F , 28°C
Dew Point: 57°F , 14°C
Humidity: 42%
Barometer: 30.01 inHg , 1016.3 hPa
Clouds: Clear
Visibility: 10 miles , 16 km
2017/08/22 21:52 KRHV 222152Z 32006KT 10SM SKC 28/14 A3001
KPAO - Palo Alto, California, USA
Distance from station: NNW 14mi, 23km
Updated: Tue, 22-Aug-2017 2:47pm PDT
Few Clouds
Few Clouds
 Wind from NNW
Wind: NNW 13 mph , 20 km/h
Temperature: 75°F , 24°C
Dew Point: 61°F , 16°C
Humidity: 61%
Barometer: 30.01 inHg , 1016.3 hPa
Clouds: Few Clouds
Visibility: 10 miles , 16 km
Cloud details: Few Clouds 1200 ft
2017/08/22 21:47 KPAO 222147Z 34011KT 10SM FEW012 24/16 A3001
 
KSQL - San Carlos Airpo, California, USA
Distance from station: NW 21mi, 34km
Updated: Tue, 22-Aug-2017 2:48pm PDT
Haze, Few clouds
Haze, Few clouds
 Wind from NNW
Wind: NNW 10 mph , 17 km/h
Temperature: 75°F , 24°C
Dew Point: 59°F , 15°C
Humidity: 57%
Barometer: 30.01 inHg , 1016.3 hPa
Summary: Haze
Clouds: Few Clouds
Visibility: 7 miles , 11 km
Cloud details: Few Clouds 1600 ft
2017/08/22 21:48 KSQL 222148Z 34009KT 7SM HZ FEW016 24/15 A3001
KWVI - Watsonville, California, USA
Distance from station: SSE 27mi, 44km
Updated: Tue, 22-Aug-2017 2:53pm PDT
Clear
Clear
 Wind from SSW
Wind: SSW 6 mph , 9 km/h
Temperature: 72°F , 22°C
Dew Point: 57°F , 14°C
Humidity: 61%
Barometer: 30.03 inHg , 1016.9 hPa
Clouds: Clear
Visibility: 10 miles , 16 km
2017/08/22 21:53 KWVI 222153Z AUTO 21005KT 10SM CLR 22/14 A3003 RMK AO2 SLP166 T02220144 TSNO
 
KHWD - Hayward, California, USA
Distance from station: N 28mi, 44km
Updated: Tue, 22-Aug-2017 1:54pm PDT
NOT Current

 Wind from WNW
Wind: WNW 13 mph , 20 km/h
Temperature: 73°F , 23°C
Dew Point: 55°F , 13°C
Humidity: 53%
Barometer: 30.02 inHg , 1016.6 hPa
Visibility: 10 miles , 16 km
2017/08/22 20:54 KHWD 222054Z AUTO 29011KT 10SM 23/13 A3002 RMK AO2 SLP175 T02330128 $
KSFO - San Francisco, California, USA
Distance from station: NW 30mi, 49km
Updated: Tue, 22-Aug-2017 2:56pm PDT
Few Clouds
Few Clouds
 Wind from WNW
Wind: WNW 23 mph , 37 km/h
Temperature: 72°F , 22°C
Dew Point: 55°F , 13°C
Humidity: 57%
Barometer: 30.01 inHg , 1016.3 hPa
Clouds: Few Clouds
Visibility: 10 miles , 16 km
Cloud details: Few Clouds 1400 ft
Few Clouds 4500 ft
2017/08/22 21:56 KSFO 222156Z 30020KT 10SM FEW014 FEW045 22/13 A3001 RMK AO2 SLP162 T02170133
 
KHAF - Half Moon Bay, California, USA
Distance from station: WNW 31mi, 50km
Updated: Tue, 22-Aug-2017 3:35pm PDT
Clear
Clear
 Wind from NNW
Wind: NNW 13 mph , 20 km/h
Temperature: 64°F , 18°C
Dew Point: 57°F , 14°C
Humidity: 78%
Barometer: 30.01 inHg , 1016.3 hPa
Clouds: Clear
Visibility: 9 miles , 14 km
2017/08/22 22:35 KHAF 222235Z AUTO 33011KT 9SM CLR 18/14 A3001 RMK AO2
KOAK - Oakland, California, USA
Distance from station: NNW 31mi, 50km
Updated: Tue, 22-Aug-2017 2:53pm PDT
Few Clouds
Few Clouds
 Wind from WNW
Wind: WNW 14 mph , 22 km/h
Temperature: 72°F , 22°C
Dew Point: 59°F , 15°C
Humidity: 65%
Barometer: 30.01 inHg , 1016.3 hPa
Clouds: Few Clouds
Visibility: 8 miles , 13 km
Cloud details: Few Clouds 20000 ft
2017/08/22 21:53 KOAK 222153Z 30012KT 8SM FEW200 22/15 A3001 RMK AO2 SLP163 T02220150
 
KLVK - Livermore, California, USA
Distance from station: NNE 31mi, 51km
Updated: Tue, 22-Aug-2017 2:53pm PDT
Clear
Clear
 Wind from W
Wind: W 9 mph , 15 km/h
Temperature: 88°F , 31°C
Dew Point: 55°F , 13°C
Humidity: 33%
Barometer: 29.97 inHg , 1014.9 hPa
Clouds: Clear
Visibility: 10 miles , 16 km
2017/08/22 21:53 KLVK 222153Z 26008KT 10SM CLR 31/13 A2997 RMK AO2 SLP144 T03060128
KCVH - Hollister Muni, California, USA
Distance from station: SE 42mi, 68km
Updated: Tue, 22-Aug-2017 3:30pm PDT
Clear
Clear
 Wind from WSW
Wind: WSW 20 mph , 31 km/h
Temperature: 82°F , 28°C
Heat Index: 82°F , 28°C
Dew Point: 57°F , 14°C
Humidity: 42%
Barometer: 29.97 inHg , 1014.9 hPa
Clouds: Clear
Visibility: 10 miles , 16 km
2017/08/22 22:30 KCVH 222230Z AUTO 25017KT 10SM CLR 28/14 A2997 RMK AO1
 
KSNS - Salinas, California, USA
Distance from station: SSE 48mi, 77km
Updated: Tue, 22-Aug-2017 2:53pm PDT
Clear
Clear
 Wind from W
Wind: W 14 mph , 22 km/h, Gust: 21 mph , 33 km/h
Temperature: 70°F , 21°C
Dew Point: 57°F , 14°C
Humidity: 64%
Barometer: 30.01 inHg , 1016.3 hPa
Clouds: Clear
Visibility: 10 miles , 16 km
2017/08/22 21:53 KSNS 222153Z 27012G18KT 10SM CLR 21/14 A3001 RMK AO2 SLP173 T02110144
KMRY - Monterey, California, USA
Distance from station: SSE 49mi, 78km
Updated: Tue, 22-Aug-2017 2:54pm PDT
Clear
Clear
 Wind from WNW
Wind: WNW 12 mph , 19 km/h
Temperature: 66°F , 19°C
Dew Point: 57°F , 14°C
Humidity: 73%
Barometer: 30.04 inHg , 1017.3 hPa
Clouds: Clear
Visibility: 10 miles , 16 km
2017/08/22 21:54 KMRY 222154Z 29010KT 10SM CLR 19/14 A3004 RMK AO2 SLP182 T01940139
 
KCCR - Concord, California, USA
Distance from station: N 50mi, 81km
Updated: Tue, 22-Aug-2017 2:53pm PDT
Clear
Clear
 Wind from NW
Wind: NW 15 mph , 24 km/h
Temperature: 88°F , 31°C
Dew Point: 55°F , 13°C
Humidity: 33%
Barometer: 29.97 inHg , 1014.9 hPa
Clouds: Clear
Visibility: 10 miles , 16 km
2017/08/22 21:53 KCCR 222153Z 31013KT 10SM CLR 31/13 A2997 RMK AO2 SLP135 T03110133

Metar display script from Saratoga-Weather.org